Airfield :
LOGIN :

Register | Disclaimer

   EN    FR    IT 

 










Legend :    VFR   Marginal VFR   IFR   Intensive IFR   Very Intensive IFR
Visi :
Ceiling :
>= 8 km
>= 3000ft
5 to 8 km
1000 to 3000 ft
1500m to 5 km
500 to 1000 ft
800 to 1500m
200 to 500 ft
< 800m
< 200 ft
Symbols :   Thunderstorms  Fog  Heavy snow  Heavy precipitations  Wind > 20 kt
SIGMETs :     Misc.  Thunderstorms  Icing  Turbulence  Mountain Waves  Volcanic Ashes






- Airport Elevation : 1306 ft
- IATA code : ACH


LSZR - Alten Rhein

CURRENT METAR :
  • 282350Z AUTO VRB02KT 9999 -RA FEW034 SCT038 BKN042 03/01 Q1007 RERASN

EXPIRED METARs :
  • 282320Z AUTO 12004KT 080V200 9999 FEW042 03/01 Q1007
  • 282250Z AUTO 26004KT 200V320 9999 FEW060 SCT070 04/00 Q1007
  • 282220Z AUTO 15007KT 110V190 9999 SCT065 SCT075 03/00 Q1008
  • 282150Z AUTO 17004KT 110V230 9999 FEW070 03/00 Q1008 RERA
  • 282120Z AUTO 22005KT 170V320 9999 FEW045 SCT060 BKN070 04/M00 Q1008

Expired Forecast.
ATIS : +41 71 858 51 66



MET'MAP, your aeronautical weather chart ! - Copyright ORBIFLY December 2007 - Disclaimer

ORBIFLY MET'MAP TEAM :

Programming & Development : Alexandra Zaïnal
Concept & original design : Baudouin d'Aumeries
Assistance for programming : Marc-Olivier Méhu
Technical & hardware support : Manuel Goepfert

Contact : metmap@orbifly.com




SOURCES & CREDITS :

   NOAA